Погода Друговона неделю

Скопье, Македония

16 - 22 июля
  • 16июля
    Сегодня
    +18°
    +36°
    Ясно и безоблачно
    ВремяПогодаТемператураВлажностьДавлениеВетер, м/сВероятность осадков
    02:00Ясно и безоблачно+21°C59 %705 мм1.0 м/с2 %
    05:00Ясно и безоблачно+18°C61 %705 мм0.7 м/с2 %
    08:00Ясно и безоблачно+26°C55 %707 мм0.4 м/с2 %
    11:00Ясно и безоблачно+33°C38 %708 мм1.1 м/с2 %
    14:00Ясно и безоблачно+36°C31 %707 мм0.8 м/с2 %
    17:00Практически безоблачно+35°C30 %706 мм0.3 м/с2 %
    20:00Ясно и безоблачно+30°C51 %705 мм0.9 м/с2 %
    23:00Ясно и безоблачно+21°C75 %705 мм1.1 м/с2 %
  • 17июля
    Среда
    +21°
    +37°
    Ясно и безоблачно
    ВремяПогодаТемператураВлажностьДавлениеВетер, м/сВероятность осадков
    02:00Ясно и безоблачно+18°C71 %705 мм0.8 м/с2 %
    05:00Ясно и безоблачно+20°C51 %705 мм0.8 м/с2 %
    08:00Ясно и безоблачно+26°C51 %707 мм0.3 м/с2 %
    11:00Ясно и безоблачно+34°C32 %708 мм1.1 м/с2 %
    14:00Ясно и безоблачно+37°C24 %708 мм1.2 м/с2 %
    17:00Небольшая облачность+36°C27 %708 мм2.3 м/с4 %
    20:00Небольшая облачность+30°C52 %707 мм0.9 м/с2 %
    23:00Практически безоблачно+24°C59 %707 мм0.7 м/с2 %
  • 18июля
    Четверг
    +20°
    +36°
    Небольшая облачность
    ВремяПогодаТемператураВлажностьДавлениеВетер, м/сВероятность осадков
    02:00Ясно и безоблачно+23°C57 %707 мм1.2 м/с2 %
    05:00Ясно и безоблачно+21°C64 %707 мм0.7 м/с2 %
    08:00Ясно и безоблачно+27°C57 %709 мм0.5 м/с2 %
    11:00Практически безоблачно+34°C41 %710 мм1.8 м/с2 %
    14:00Небольшая облачность+36°C34 %709 мм1.3 м/с16 %
    17:00Небольшая облачность, возможен дождь с грозой+34°C51 %709 мм0.8 м/с33 %
    20:00Практически безоблачно+29°C64 %709 мм1.6 м/с6 %
    23:00Ясно и безоблачно+25°C75 %709 мм1.5 м/с2 %
  • 19июля
    Пятница
    +19°
    +34°
    Практически безоблачно
    ВремяПогодаТемператураВлажностьДавлениеВетер, м/сВероятность осадков
    02:00Ясно и безоблачно+22°C77 %708 мм1.0 м/с2 %
    05:00Ясно и безоблачно+20°C78 %707 мм0.8 м/с2 %
    08:00Ясно и безоблачно+27°C64 %709 мм0.9 м/с2 %
    11:00Ясно и безоблачно+34°C48 %709 мм1.6 м/с7 %
    14:00Практически безоблачно+33°C39 %708 мм1.7 м/с21 %
    17:00Практически безоблачно+31°C40 %706 мм1.4 м/с35 %
    20:00Ясно и безоблачно+28°C58 %706 мм1.6 м/с26 %
    23:00Ясно и безоблачно+23°C74 %706 мм1.5 м/с2 %
  • 20июля
    Суббота
    +18°
    +36°
    Небольшая облачность
    ВремяПогодаТемператураВлажностьДавлениеВетер, м/сВероятность осадков
    02:00Ясно и безоблачно+21°C77 %705 мм1.2 м/с2 %
    05:00Ясно и безоблачно+20°C80 %705 мм0.8 м/с2 %
    08:00Ясно и безоблачно+26°C66 %706 мм1.0 м/с4 %
    11:00Практически безоблачно+32°C53 %707 мм1.6 м/с32 %
    14:00Небольшая облачность+35°C44 %706 мм1.4 м/с44 %
    17:00Небольшая облачность, возможен дождь с грозой+31°C73 %706 мм1.7 м/с72 %
    20:00Практически безоблачно+26°C85 %705 мм0.7 м/с48 %
    23:00Ясно и безоблачно+22°C88 %705 мм1.0 м/с12 %
Мы используем cookies
Соглашаюсь